createdAt,value
2023-03-19T00:00:57.604Z,42.87
2023-03-19T00:03:24.799Z,50.50
2023-03-19T00:05:54.710Z,48.47
2023-03-19T00:08:22.763Z,44.13
2023-03-19T00:10:50.322Z,43.87
2023-03-19T00:13:17.509Z,39.23
2023-03-19T00:15:44.680Z,34.60
2023-03-19T00:18:12.168Z,35.03
2023-03-19T00:20:39.331Z,33.63
2023-03-19T00:23:06.475Z,32.17
2023-03-19T00:25:33.925Z,31.33
2023-03-19T00:28:01.604Z,31.40
2023-03-19T00:30:29.216Z,35.60
2023-03-19T00:32:56.417Z,32.73
2023-03-19T00:35:23.552Z,34.73
2023-03-19T00:37:50.726Z,33.47
2023-03-19T00:40:17.854Z,34.33
2023-03-19T00:42:45.016Z,33.57
2023-03-19T00:45:12.972Z,33.20
2023-03-19T00:47:40.076Z,32.20
2023-03-19T00:50:07.340Z,27.57
2023-03-19T00:52:34.521Z,24.47
2023-03-19T00:55:01.784Z,26.70
2023-03-19T00:57:28.922Z,24.67
2023-03-19T00:59:56.157Z,22.53
2023-03-19T01:02:23.266Z,19.87
2023-03-19T01:04:50.575Z,19.70
2023-03-19T01:07:17.745Z,19.80
2023-03-19T01:09:44.938Z,22.40
2023-03-19T01:12:12.064Z,19.13
2023-03-19T01:14:39.266Z,20.00
2023-03-19T01:17:06.756Z,20.83
2023-03-19T01:19:34.005Z,21.37
2023-03-19T01:22:01.244Z,20.80
2023-03-19T01:24:32.575Z,26.70
2023-03-19T01:26:59.713Z,23.20
2023-03-19T01:29:26.844Z,24.53
2023-03-19T01:31:53.941Z,24.73
2023-03-19T01:34:21.596Z,25.90
2023-03-19T01:36:49.104Z,23.10
2023-03-19T01:39:16.255Z,30.53
2023-03-19T01:41:43.372Z,33.63
2023-03-19T01:44:42.821Z,26.73
2023-03-19T01:47:20.377Z,26.27
2023-03-19T01:49:48.422Z,25.93
2023-03-19T01:52:15.733Z,27.97
2023-03-19T01:54:42.834Z,28.10
2023-03-19T01:57:10.653Z,28.10
2023-03-19T01:59:47.964Z,32.43
2023-03-19T02:02:27.401Z,33.23
2023-03-19T02:04:57.103Z,32.77
2023-03-19T02:07:24.246Z,38.90
2023-03-19T02:09:51.599Z,36.47
2023-03-19T02:12:18.734Z,35.83
2023-03-19T02:14:46.056Z,35.87
2023-03-19T02:17:13.218Z,42.30
2023-03-19T02:20:01.175Z,60.77
2023-03-19T02:22:28.759Z,47.97
2023-03-19T02:25:00.917Z,41.77
2023-03-19T02:27:28.160Z,42.23
2023-03-19T02:29:55.445Z,36.70
2023-03-19T02:32:22.550Z,29.90
2023-03-19T02:34:49.679Z,22.70
2023-03-19T02:37:27.422Z,22.37
2023-03-19T02:39:59.022Z,24.37
2023-03-19T02:42:26.732Z,27.83
2023-03-19T02:44:53.870Z,31.70
2023-03-19T02:47:21.096Z,36.77
2023-03-19T02:49:48.202Z,30.97
2023-03-19T02:52:15.591Z,34.77
2023-03-19T02:54:43.992Z,29.37
2023-03-19T02:57:11.106Z,30.57
2023-03-19T02:59:39.012Z,39.93
2023-03-19T03:02:06.900Z,47.83
2023-03-19T03:04:34.107Z,41.87
2023-03-19T03:07:01.772Z,39.77
2023-03-19T03:09:28.879Z,34.90
2023-03-19T03:11:55.986Z,34.17
2023-03-19T03:14:23.163Z,35.10
2023-03-19T03:16:50.892Z,31.30
2023-03-19T03:19:18.044Z,30.67
2023-03-19T03:21:45.253Z,32.70
2023-03-19T03:24:12.355Z,32.43
2023-03-19T03:26:39.524Z,34.40
2023-03-19T03:29:06.871Z,31.00
2023-03-19T03:31:34.773Z,36.53
2023-03-19T03:34:02.164Z,35.57
2023-03-19T03:36:29.330Z,34.60
2023-03-19T03:38:56.463Z,30.70
2023-03-19T03:41:23.595Z,40.70
2023-03-19T03:43:50.886Z,33.27
2023-03-19T03:46:18.125Z,31.67
2023-03-19T03:48:45.320Z,30.83
2023-03-19T03:51:12.452Z,31.70
2023-03-19T03:53:39.594Z,34.17
2023-03-19T03:56:06.900Z,38.23
2023-03-19T03:58:34.053Z,35.17
2023-03-19T04:01:01.227Z,38.00
2023-03-19T04:03:28.363Z,35.90
2023-03-19T04:05:55.959Z,36.10
2023-03-19T04:08:23.527Z,31.00
2023-03-19T04:10:50.696Z,31.27
2023-03-19T04:13:17.890Z,27.73
2023-03-19T04:15:45.039Z,31.70
2023-03-19T04:18:12.179Z,30.57
2023-03-19T04:20:40.170Z,30.83
2023-03-19T04:23:07.257Z,28.17
2023-03-19T04:25:34.446Z,28.33
2023-03-19T04:28:02.100Z,30.17
2023-03-19T04:30:29.279Z,31.90
2023-03-19T04:32:56.842Z,32.70
2023-03-19T04:35:24.130Z,32.33
2023-03-19T04:37:51.656Z,32.70
2023-03-19T04:40:19.354Z,33.77
2023-03-19T04:42:46.777Z,32.57
2023-03-19T04:45:13.978Z,35.27
2023-03-19T04:47:41.211Z,33.83
2023-03-19T04:50:09.393Z,33.03
2023-03-19T04:52:37.454Z,31.50
2023-03-19T04:55:05.310Z,33.07
2023-03-19T04:57:32.459Z,36.73
2023-03-19T04:59:59.624Z,33.43
2023-03-19T05:02:27.291Z,34.47
2023-03-19T05:04:54.493Z,38.77
2023-03-19T05:07:21.617Z,42.80
2023-03-19T05:09:48.759Z,41.90
2023-03-19T05:12:15.936Z,41.57
2023-03-19T05:14:43.046Z,40.27
2023-03-19T05:17:11.223Z,30.13
2023-03-19T05:19:39.663Z,28.80
2023-03-19T05:22:06.811Z,21.50
2023-03-19T05:24:33.921Z,21.60
2023-03-19T05:27:01.077Z,23.80
2023-03-19T05:29:28.196Z,25.03
2023-03-19T05:31:55.340Z,25.87
2023-03-19T05:34:22.537Z,24.83
2023-03-19T05:36:50.120Z,24.83
2023-03-19T05:39:17.254Z,25.70
2023-03-19T05:41:44.436Z,26.97
2023-03-19T05:44:11.917Z,29.33
2023-03-19T05:46:39.132Z,37.10
2023-03-19T05:49:06.366Z,45.57
2023-03-19T05:51:33.464Z,38.63
2023-03-19T05:54:00.759Z,41.17
2023-03-19T05:56:27.971Z,45.17
2023-03-19T05:58:55.309Z,45.40
2023-03-19T06:01:22.589Z,45.93
2023-03-19T06:03:49.811Z,38.80
2023-03-19T06:06:17.306Z,35.83
2023-03-19T06:08:44.438Z,45.20
2023-03-19T06:11:11.591Z,46.63
2023-03-19T06:13:39.188Z,35.73
2023-03-19T06:16:06.656Z,41.17
2023-03-19T06:18:33.816Z,56.67
2023-03-19T06:21:01.104Z,58.83
2023-03-19T06:23:28.243Z,60.67
2023-03-19T06:25:55.494Z,39.37
2023-03-19T06:28:22.647Z,27.47
2023-03-19T06:30:49.793Z,23.10
2023-03-19T06:33:17.470Z,22.40
2023-03-19T06:35:44.742Z,21.87
2023-03-19T06:38:12.261Z,21.33
2023-03-19T06:40:39.385Z,16.57
2023-03-19T06:43:07.247Z,14.83
2023-03-19T06:45:34.436Z,18.57
2023-03-19T06:48:01.596Z,14.40
2023-03-19T06:50:28.718Z,12.70
2023-03-19T06:52:56.146Z,32.17
2023-03-19T06:55:23.327Z,27.80
2023-03-19T06:57:50.961Z,26.50
2023-03-19T07:00:18.615Z,26.53
2023-03-19T07:02:45.971Z,19.03
2023-03-19T07:05:13.371Z,20.53
2023-03-19T07:07:40.853Z,16.63
2023-03-19T07:10:08.869Z,18.73
2023-03-19T07:12:36.155Z,27.93
2023-03-19T07:15:04.778Z,23.97
2023-03-19T07:17:31.946Z,16.03
2023-03-19T07:19:59.064Z,16.27
2023-03-19T07:22:26.238Z,17.30
2023-03-19T07:24:53.401Z,16.20
2023-03-19T07:27:20.972Z,16.97
2023-03-19T07:29:48.087Z,15.03
2023-03-19T07:32:15.268Z,15.63
2023-03-19T07:34:42.515Z,17.83
2023-03-19T07:37:09.622Z,17.40
2023-03-19T07:39:37.099Z,16.50
2023-03-19T07:42:04.693Z,17.37
2023-03-19T07:44:31.807Z,16.70
2023-03-19T07:46:58.942Z,15.20
2023-03-19T07:49:26.336Z,16.00
2023-03-19T07:51:53.521Z,15.47
2023-03-19T07:54:21.437Z,13.73
2023-03-19T07:56:48.539Z,13.63
2023-03-19T07:59:15.683Z,14.00
2023-03-19T08:01:42.879Z,10.23
2023-03-19T08:04:10.091Z,8.35
2023-03-19T08:06:38.507Z,12.80
2023-03-19T08:09:05.870Z,10.00
2023-03-19T08:11:32.977Z,8.85
2023-03-19T08:14:00.646Z,8.10
2023-03-19T08:16:27.839Z,7.55
2023-03-19T08:18:54.992Z,7.10
2023-03-19T08:21:22.451Z,6.75
2023-03-19T08:23:49.617Z,5.40
2023-03-19T08:26:17.063Z,4.97
2023-03-19T08:28:44.243Z,5.50
2023-03-19T08:31:11.969Z,6.05
2023-03-19T08:33:39.183Z,5.85
2023-03-19T08:36:07.727Z,5.70
2023-03-19T08:38:34.897Z,5.45
2023-03-19T08:41:04.194Z,4.38
2023-03-19T08:43:31.708Z,6.07
2023-03-19T08:45:58.867Z,5.07
2023-03-19T08:48:26.388Z,4.15
2023-03-19T08:50:54.523Z,3.45
2023-03-19T08:53:21.688Z,4.28
2023-03-19T08:55:52.815Z,3.78
2023-03-19T08:58:20.050Z,4.28
2023-03-19T09:00:47.483Z,4.18
2023-03-19T09:03:14.629Z,6.82
2023-03-19T09:05:41.789Z,7.65
2023-03-19T09:08:08.991Z,4.63
2023-03-19T09:10:36.476Z,2.88
2023-03-19T09:13:03.707Z,3.08
2023-03-19T09:15:30.955Z,2.78
2023-03-19T09:17:58.072Z,2.50
2023-03-19T09:20:25.203Z,2.50
2023-03-19T09:22:52.402Z,3.00
2023-03-19T09:25:19.552Z,2.92
2023-03-19T09:27:46.674Z,3.53
2023-03-19T09:30:14.202Z,3.80
2023-03-19T09:32:41.386Z,3.85
2023-03-19T09:35:08.722Z,3.03
2023-03-19T09:37:36.058Z,2.92
2023-03-19T09:40:04.885Z,3.88
2023-03-19T09:42:50.253Z,3.03
2023-03-19T09:45:18.410Z,3.20
2023-03-19T09:47:46.604Z,3.47
2023-03-19T09:50:14.679Z,3.13
2023-03-19T09:52:47.934Z,2.90
2023-03-19T09:55:18.167Z,2.78
2023-03-19T09:57:45.414Z,3.00
2023-03-19T10:00:20.384Z,2.97
2023-03-19T10:02:47.648Z,3.00
2023-03-19T10:05:37.380Z,2.92
2023-03-19T10:08:04.586Z,3.30
2023-03-19T10:10:36.895Z,3.08
2023-03-19T10:13:16.018Z,3.28
2023-03-19T10:15:44.580Z,3.40
2023-03-19T10:18:20.888Z,2.90
2023-03-19T10:20:49.594Z,3.50
2023-03-19T10:23:25.956Z,3.35
2023-03-19T10:25:53.661Z,3.00
2023-03-19T10:28:20.794Z,3.50
2023-03-19T10:30:53.798Z,3.90
2023-03-19T10:33:21.468Z,3.38
2023-03-19T10:35:49.595Z,3.63
2023-03-19T10:38:24.068Z,4.85
2023-03-19T10:41:09.880Z,3.33
2023-03-19T10:43:37.267Z,3.45
2023-03-19T10:46:04.467Z,3.38
2023-03-19T10:48:32.500Z,3.63
2023-03-19T10:51:00.646Z,3.10
2023-03-19T10:53:29.627Z,3.47
2023-03-19T10:55:57.928Z,3.53
2023-03-19T10:58:26.233Z,3.42
2023-03-19T11:00:57.334Z,3.10
2023-03-19T11:03:29.621Z,3.75
2023-03-19T11:06:16.038Z,3.42
2023-03-19T11:08:43.625Z,3.13
2023-03-19T11:11:23.730Z,4.13
2023-03-19T11:13:51.029Z,3.40
2023-03-19T11:16:18.176Z,4.93
2023-03-19T11:18:45.749Z,5.55
2023-03-19T11:21:23.138Z,3.70
2023-03-19T11:23:53.508Z,3.22
2023-03-19T11:26:21.667Z,4.38
2023-03-19T11:28:52.234Z,3.97
2023-03-19T11:31:25.238Z,3.15
2023-03-19T11:34:01.618Z,2.70
2023-03-19T11:36:37.973Z,3.67
2023-03-19T11:39:11.274Z,2.90
2023-03-19T11:41:56.575Z,2.88
2023-03-19T11:44:42.381Z,2.95
2023-03-19T11:47:24.549Z,2.85
2023-03-19T11:50:18.364Z,3.40
2023-03-19T11:53:03.953Z,3.00
2023-03-19T11:55:36.270Z,3.35
2023-03-19T11:58:06.467Z,6.80
2023-03-19T12:00:36.359Z,4.93
2023-03-19T12:03:09.346Z,3.20
2023-03-19T12:05:52.075Z,4.10
2023-03-19T12:08:30.899Z,5.45
2023-03-19T12:10:58.180Z,4.97
2023-03-19T12:13:25.667Z,4.10
2023-03-19T12:16:08.581Z,3.33
2023-03-19T12:18:44.992Z,2.80
2023-03-19T12:21:12.627Z,3.20
2023-03-19T12:23:49.031Z,2.80
2023-03-19T12:26:25.733Z,3.78
2023-03-19T12:28:52.988Z,3.22
2023-03-19T12:31:33.478Z,3.15
2023-03-19T12:34:00.582Z,4.57
2023-03-19T12:36:29.735Z,2.67
2023-03-19T12:39:01.152Z,2.92
2023-03-19T12:41:28.645Z,3.05
2023-03-19T12:43:55.775Z,3.28
2023-03-19T12:46:25.952Z,3.10
2023-03-19T12:49:12.048Z,4.13
2023-03-19T12:51:41.927Z,3.78
2023-03-19T12:54:11.889Z,3.40
2023-03-19T12:56:57.977Z,3.47
2023-03-19T12:59:37.168Z,3.33
2023-03-19T13:02:06.168Z,3.30
2023-03-19T13:04:39.798Z,8.95
2023-03-19T13:07:08.244Z,4.15
2023-03-19T13:09:43.214Z,4.70
2023-03-19T13:12:13.378Z,2.90
2023-03-19T13:14:46.645Z,3.55
2023-03-19T13:17:21.484Z,4.28
2023-03-19T13:19:52.648Z,3.10
2023-03-19T13:22:20.397Z,3.10
2023-03-19T13:24:47.603Z,3.00
2023-03-19T13:27:16.922Z,2.85
2023-03-19T13:30:01.527Z,3.58
2023-03-19T13:32:37.133Z,3.10
2023-03-19T13:35:14.617Z,3.35
2023-03-19T13:37:42.925Z,3.78
2023-03-19T13:40:28.946Z,3.50
2023-03-19T13:42:59.041Z,3.53
2023-03-19T13:45:26.426Z,3.33
2023-03-19T13:47:54.746Z,3.13
2023-03-19T13:50:22.021Z,3.80
2023-03-19T13:52:50.131Z,3.33
2023-03-19T13:55:26.833Z,5.13
2023-03-19T13:58:02.028Z,3.60
2023-03-19T14:00:58.701Z,4.43
2023-03-19T14:03:26.574Z,3.35
2023-03-19T14:05:54.351Z,4.40
2023-03-19T14:08:32.745Z,4.93
2023-03-19T14:11:00.951Z,4.07
2023-03-19T14:13:35.993Z,3.83
2023-03-19T14:16:07.458Z,4.10
2023-03-19T14:18:34.932Z,4.05
2023-03-19T14:21:06.778Z,3.78
2023-03-19T14:23:42.261Z,4.05
2023-03-19T14:26:23.569Z,4.05
2023-03-19T14:29:00.935Z,3.95
2023-03-19T14:31:28.426Z,3.97
2023-03-19T14:34:04.533Z,4.40
2023-03-19T14:36:31.885Z,3.97
2023-03-19T14:39:34.567Z,4.00
2023-03-19T14:42:22.037Z,5.07
2023-03-19T14:45:01.488Z,4.05
2023-03-19T14:47:39.594Z,4.80
2023-03-19T14:50:22.040Z,4.10
2023-03-19T14:52:53.679Z,4.88
2023-03-19T14:55:20.962Z,3.80
2023-03-19T14:57:48.223Z,3.75
2023-03-19T15:00:19.234Z,4.30
2023-03-19T15:02:47.555Z,7.70
2023-03-19T15:05:26.010Z,4.53
2023-03-19T15:07:54.573Z,4.57
2023-03-19T15:10:22.330Z,7.15
2023-03-19T15:12:55.676Z,4.85
2023-03-19T15:15:25.724Z,6.28
2023-03-19T15:18:03.113Z,6.75
2023-03-19T15:20:36.806Z,9.18
2023-03-19T15:23:11.044Z,6.65
2023-03-19T15:25:50.793Z,8.90
2023-03-19T15:28:18.619Z,8.82
2023-03-19T15:30:58.444Z,9.80
2023-03-19T15:33:40.091Z,14.50
2023-03-19T15:36:13.991Z,167.75
2023-03-19T15:38:49.519Z,12.43
2023-03-19T15:41:16.640Z,7.78
2023-03-19T15:43:43.787Z,7.97
2023-03-19T15:46:11.835Z,5.82
2023-03-19T15:48:40.308Z,5.03
2023-03-19T15:51:07.427Z,11.93
2023-03-19T15:53:35.062Z,9.70
2023-03-19T15:56:02.748Z,9.00
2023-03-19T15:58:30.803Z,7.95
2023-03-19T16:00:59.274Z,6.90
2023-03-19T16:03:27.533Z,6.60
2023-03-19T16:06:07.655Z,6.05
2023-03-19T16:08:34.816Z,7.22
2023-03-19T16:11:20.414Z,6.72
2023-03-19T16:13:53.730Z,9.77
2023-03-19T16:16:21.694Z,11.77
2023-03-19T16:18:53.035Z,22.00
2023-03-19T16:21:53.332Z,14.82
2023-03-19T16:24:31.015Z,13.48
2023-03-19T16:26:58.447Z,20.02
2023-03-19T16:29:25.558Z,15.10
2023-03-19T16:31:53.561Z,14.15
2023-03-19T16:34:24.573Z,41.75
2023-03-19T16:36:51.744Z,27.15
2023-03-19T16:39:30.911Z,26.52
2023-03-19T16:42:09.937Z,42.58
2023-03-19T16:44:40.043Z,42.05
2023-03-19T16:47:13.934Z,41.53
2023-03-19T16:49:41.084Z,48.33
2023-03-19T16:52:11.172Z,58.33
2023-03-19T16:54:38.280Z,62.67
2023-03-19T16:57:05.440Z,46.92
2023-03-19T16:59:32.584Z,49.95
2023-03-19T17:01:59.740Z,62.22
2023-03-19T17:04:26.995Z,53.45
2023-03-19T17:06:54.142Z,67.57
2023-03-19T17:09:21.642Z,73.32
2023-03-19T17:11:48.764Z,78.90
2023-03-19T17:14:18.523Z,69.13
2023-03-19T17:16:50.538Z,48.13
2023-03-19T17:19:24.124Z,49.78
2023-03-19T17:21:53.472Z,62.28
2023-03-19T17:24:23.934Z,63.85
2023-03-19T17:26:51.428Z,54.45
2023-03-19T17:29:20.196Z,51.58
2023-03-19T17:31:47.495Z,52.88
2023-03-19T17:34:16.565Z,52.50
2023-03-19T17:36:45.417Z,50.75
2023-03-19T17:39:12.524Z,46.67
2023-03-19T17:41:40.325Z,56.70
2023-03-19T17:44:07.571Z,59.40
2023-03-19T17:46:37.535Z,71.40
2023-03-19T17:49:04.999Z,85.50
2023-03-19T17:51:32.207Z,76.60
2023-03-19T17:54:00.585Z,62.60
2023-03-19T17:56:27.730Z,59.22
2023-03-19T17:58:55.188Z,60.67
2023-03-19T18:01:23.481Z,63.47
2023-03-19T18:03:50.887Z,61.45
2023-03-19T18:06:18.654Z,58.13
2023-03-19T18:08:46.102Z,61.78
2023-03-19T18:11:13.570Z,57.72
2023-03-19T18:13:41.076Z,52.83
2023-03-19T18:16:40.858Z,50.65
2023-03-19T18:19:12.915Z,236.00
2023-03-19T18:21:40.036Z,66.32
2023-03-19T18:24:07.373Z,61.00
2023-03-19T18:26:34.502Z,64.85
2023-03-19T18:29:01.763Z,72.13
2023-03-19T18:31:30.391Z,59.05
2023-03-19T18:33:58.938Z,62.10
2023-03-19T18:36:26.840Z,52.83
2023-03-19T18:38:55.089Z,53.22
2023-03-19T18:41:22.599Z,51.33
2023-03-19T18:43:49.836Z,50.83
2023-03-19T18:46:21.277Z,49.20
2023-03-19T18:48:48.558Z,49.88
2023-03-19T18:51:15.889Z,51.42
2023-03-19T18:53:43.047Z,54.92
2023-03-19T18:56:20.597Z,52.55
2023-03-19T18:58:47.693Z,39.15
2023-03-19T19:01:17.693Z,43.65
2023-03-19T19:03:45.348Z,46.65
2023-03-19T19:06:26.332Z,60.10
2023-03-19T19:08:56.557Z,60.97
2023-03-19T19:11:23.695Z,55.50
2023-03-19T19:13:56.084Z,44.40
2023-03-19T19:16:26.322Z,54.55
2023-03-19T19:18:53.796Z,51.88
2023-03-19T19:21:21.055Z,46.30
2023-03-19T19:23:48.210Z,53.20
2023-03-19T19:26:19.427Z,52.33
2023-03-19T19:28:46.590Z,49.95
2023-03-19T19:31:20.265Z,43.80
2023-03-19T19:33:47.429Z,43.28
2023-03-19T19:36:14.536Z,39.85
2023-03-19T19:38:41.708Z,40.07
2023-03-19T19:41:13.313Z,40.83
2023-03-19T19:43:40.415Z,41.97
2023-03-19T19:46:07.640Z,43.03
2023-03-19T19:48:34.762Z,42.00
2023-03-19T19:51:01.868Z,41.92
2023-03-19T19:53:30.598Z,46.83
2023-03-19T19:55:57.860Z,46.13
2023-03-19T19:58:25.961Z,47.25
2023-03-19T20:01:02.701Z,64.38
2023-03-19T20:03:31.299Z,77.03
2023-03-19T20:06:00.703Z,83.82
2023-03-19T20:08:28.780Z,137.93
2023-03-19T20:10:56.112Z,129.23
2023-03-19T20:13:30.396Z,101.10
2023-03-19T20:15:58.742Z,93.13
2023-03-19T20:18:30.468Z,105.37
2023-03-19T20:20:58.283Z,104.63
2023-03-19T20:23:26.769Z,107.97
2023-03-19T20:25:54.924Z,99.95
2023-03-19T20:28:32.369Z,102.63
2023-03-19T20:30:59.542Z,91.05
2023-03-19T20:33:27.414Z,80.80
2023-03-19T20:35:55.672Z,73.57
2023-03-19T20:38:22.971Z,67.60
2023-03-19T20:40:51.197Z,65.60
2023-03-19T20:43:31.791Z,72.00
2023-03-19T20:45:59.487Z,59.53
2023-03-19T20:48:27.274Z,58.73
2023-03-19T20:50:54.787Z,58.97
2023-03-19T20:53:22.046Z,63.47
2023-03-19T20:55:49.250Z,63.50
2023-03-19T20:58:29.606Z,62.23
2023-03-19T21:00:57.824Z,67.67
2023-03-19T21:03:25.717Z,67.13
2023-03-19T21:05:53.472Z,64.70
2023-03-19T21:08:26.295Z,66.70
2023-03-19T21:10:53.681Z,69.10
2023-03-19T21:13:21.847Z,64.77
2023-03-19T21:15:53.874Z,64.67
2023-03-19T21:18:21.293Z,61.10
2023-03-19T21:20:49.591Z,59.50
2023-03-19T21:23:21.753Z,57.03
2023-03-19T21:25:49.295Z,53.97
2023-03-19T21:28:35.345Z,53.00
2023-03-19T21:31:02.653Z,57.90
2023-03-19T21:33:30.786Z,55.27
2023-03-19T21:35:58.138Z,55.07
2023-03-19T21:38:25.394Z,55.07
2023-03-19T21:40:52.839Z,56.43
2023-03-19T21:43:21.495Z,60.37
2023-03-19T21:45:49.490Z,61.90
2023-03-19T21:48:25.819Z,63.00
2023-03-19T21:50:53.126Z,55.50
2023-03-19T21:53:21.193Z,51.47
2023-03-19T21:55:48.717Z,45.70
2023-03-19T21:58:16.646Z,41.20
2023-03-19T22:00:43.945Z,44.53
2023-03-19T22:03:14.617Z,43.73
2023-03-19T22:05:41.761Z,47.60
2023-03-19T22:08:08.875Z,47.80
2023-03-19T22:10:36.564Z,49.10
2023-03-19T22:13:04.586Z,46.20
2023-03-19T22:15:36.427Z,44.57
2023-03-19T22:18:07.535Z,43.80
2023-03-19T22:20:34.713Z,42.90
2023-03-19T22:23:02.501Z,46.57
2023-03-19T22:25:30.744Z,44.83
2023-03-19T22:27:57.876Z,51.17
2023-03-19T22:30:28.126Z,47.60
2023-03-19T22:32:55.641Z,44.33
2023-03-19T22:35:22.989Z,45.27
2023-03-19T22:37:50.124Z,44.30
2023-03-19T22:40:17.883Z,43.07
2023-03-19T22:42:45.569Z,44.70
2023-03-19T22:45:31.855Z,44.77
2023-03-19T22:47:59.218Z,46.10
2023-03-19T22:50:30.158Z,46.87
2023-03-19T22:52:57.413Z,44.43
2023-03-19T22:55:24.544Z,46.50
2023-03-19T22:57:51.718Z,45.90
2023-03-19T23:00:20.164Z,48.77
2023-03-19T23:02:47.908Z,55.23
2023-03-19T23:05:28.442Z,51.70
2023-03-19T23:07:55.621Z,46.90
2023-03-19T23:10:23.705Z,49.13
2023-03-19T23:12:50.908Z,47.73
2023-03-19T23:15:18.054Z,46.83
2023-03-19T23:17:46.319Z,46.97
2023-03-19T23:20:17.516Z,46.13
2023-03-19T23:22:45.729Z,48.67
2023-03-19T23:25:13.807Z,46.97
2023-03-19T23:27:41.052Z,45.30
2023-03-19T23:30:13.961Z,47.53
2023-03-19T23:32:41.684Z,46.10
2023-03-19T23:35:18.886Z,62.53
2023-03-19T23:37:46.393Z,85.53
2023-03-19T23:40:14.287Z,63.57
2023-03-19T23:42:51.782Z,63.10
2023-03-19T23:45:18.908Z,54.27
2023-03-19T23:47:46.294Z,53.93
2023-03-19T23:50:13.641Z,45.37
2023-03-19T23:52:41.034Z,43.13
2023-03-19T23:55:08.520Z,39.80
2023-03-19T23:57:36.714Z,38.17
